Narowal Weather



Narowal's Current Weather

Temprature 34.94o scattered clouds

scattered clouds

Rain: 0 %

Min Temprature34.94o
Max Temprature35.99o
Humidity32
Wind Speed2.03 m/h
Sun Rise05:10:07
Sun Set19:03:30
Current Time: 24-Jul-2021 16:54:54
Lat/Lon: 32.1, 74.8833




Narowal's Geo Location



Narowal's Weather Forecast

Time Overall Temp Min Temp Max Temp Humidity Wind Speed Rain
24-Jul-2021 (Sat)
17:00:00 scattered clouds 34.940 34.940 39.950 32 2.03 m/h 0 %
20:00:00 scattered clouds 35.400 35.400 36.320 36 1.46 m/h 0 %
23:00:00 scattered clouds 34.450 34.210 34.450 44 2.06 m/h 0 %
25-Jul-2021 (Sun)
02:00:00 overcast clouds 32.940 32.940 32.940 54 2.61 m/h 0 %
05:00:00 overcast clouds 32.350 32.350 32.350 56 2.12 m/h 0 %
08:00:00 overcast clouds 34.690 34.690 34.690 51 3.18 m/h 0 %
11:00:00 overcast clouds 39.030 39.030 39.030 39 1.75 m/h 0 %
14:00:00 overcast clouds 39.470 39.470 39.470 36 1.7 m/h 0 %
17:00:00 overcast clouds 36.650 36.650 36.650 48 5.38 m/h 0 %
20:00:00 broken clouds 33.570 33.570 33.570 58 5.08 m/h 0 %
23:00:00 light rain 31.370 31.370 31.370 67 4.1 m/h 27 %
26-Jul-2021 (Mon)
02:00:00 light rain 29.960 29.960 29.960 75 3.66 m/h 78 %
05:00:00 light rain 29.020 29.020 29.020 79 4.54 m/h 29 %
08:00:00 overcast clouds 30.580 30.580 30.580 71 4.99 m/h 0 %
11:00:00 overcast clouds 35.540 35.540 35.540 52 4.83 m/h 0 %
14:00:00 broken clouds 38.630 38.630 38.630 43 3.93 m/h 0 %
17:00:00 broken clouds 35.870 35.870 35.870 52 5.55 m/h 0 %
20:00:00 moderate rain 29.070 29.070 29.070 82 6.34 m/h 414 %
23:00:00 moderate rain 28.280 28.280 28.280 87 5.19 m/h 504 %
27-Jul-2021 (Tue)
02:00:00 light rain 26.990 26.990 26.990 92 5.46 m/h 243 %
05:00:00 light rain 26.870 26.870 26.870 92 4.43 m/h 54 %
08:00:00 overcast clouds 28.060 28.060 28.060 85 4.88 m/h 0 %
11:00:00 overcast clouds 31.870 31.870 31.870 67 3.94 m/h 0 %
14:00:00 light rain 33.340 33.340 33.340 60 4.88 m/h 84 %
17:00:00 light rain 29.770 29.770 29.770 76 6.23 m/h 170 %
20:00:00 light rain 27.200 27.200 27.200 84 6.27 m/h 71 %
23:00:00 moderate rain 26.190 26.190 26.190 89 4.8 m/h 309 %
28-Jul-2021 (Wed)
02:00:00 light rain 25.580 25.580 25.580 92 4.24 m/h 245 %
05:00:00 moderate rain 25.030 25.030 25.030 97 3.63 m/h 1,020 %
08:00:00 heavy intensity rain 25.140 25.140 25.140 97 3.77 m/h 1,470 %
11:00:00 heavy intensity rain 25.300 25.300 25.300 95 3.59 m/h 1,243 %
14:00:00 light rain 26.750 26.750 26.750 87 2.99 m/h 86 %
17:00:00 light rain 26.850 26.850 26.850 88 2.5 m/h 51 %
20:00:00 light rain 25.980 25.980 25.980 92 1.83 m/h 28 %
23:00:00 overcast clouds 25.530 25.530 25.530 94 2.02 m/h 0 %
29-Jul-2021 (Thu)
02:00:00 overcast clouds 25.330 25.330 25.330 94 2.03 m/h 0 %
05:00:00 overcast clouds 25.160 25.160 25.160 94 1.23 m/h 0 %
08:00:00 few clouds 27.890 27.890 27.890 81 1.97 m/h 0 %
11:00:00 scattered clouds 31.920 31.920 31.920 64 1.8 m/h 0 %
14:00:00 scattered clouds 34.650 34.650 34.650 52 1.04 m/h 0 %

Famous Cities (60)